sensor_id;sensor_type;location;lat;lon;timestamp;pressure;altitude;pressure_sealevel;temperature;humidity
56928;BME280;60850;52.502;13.426;2023-02-18T00:02:20;101056.38;;;7.34;100.00
56928;BME280;60850;52.502;13.426;2023-02-18T00:04:47;101063.44;;;7.35;100.00
56928;BME280;60850;52.502;13.426;2023-02-18T00:07:14;101048.34;;;7.42;100.00
56928;BME280;60850;52.502;13.426;2023-02-18T00:09:41;101043.91;;;7.42;100.00
56928;BME280;60850;52.502;13.426;2023-02-18T00:12:08;101051.84;;;7.44;100.00
56928;BME280;60850;52.502;13.426;2023-02-18T00:14:37;101037.72;;;7.42;100.00
56928;BME280;60850;52.502;13.426;2023-02-18T00:17:04;101043.00;;;7.45;100.00
56928;BME280;60850;52.502;13.426;2023-02-18T00:19:31;101043.91;;;7.42;100.00
56928;BME280;60850;52.502;13.426;2023-02-18T00:21:58;101051.84;;;7.44;100.00
56928;BME280;60850;52.502;13.426;2023-02-18T00:24:25;101055.41;;;7.43;100.00
56928;BME280;60850;52.502;13.426;2023-02-18T00:26:52;101066.84;;;7.50;100.00
56928;BME280;60850;52.502;13.426;2023-02-18T00:29:19;101069.50;;;7.50;100.00
56928;BME280;60850;52.502;13.426;2023-02-18T00:31:48;101079.25;;;7.44;100.00
56928;BME280;60850;52.502;13.426;2023-02-18T00:34:15;101060.78;;;7.34;100.00
56928;BME280;60850;52.502;13.426;2023-02-18T00:36:42;101058.25;;;7.20;100.00
56928;BME280;60850;52.502;13.426;2023-02-18T00:39:09;101068.91;;;7.09;100.00
56928;BME280;60850;52.502;13.426;2023-02-18T00:41:37;101063.66;;;7.03;100.00
56928;BME280;60850;52.502;13.426;2023-02-18T00:44:05;101073.44;;;6.95;100.00
56928;BME280;60850;52.502;13.426;2023-02-18T00:46:33;101077.00;;;6.89;100.00
56928;BME280;60850;52.502;13.426;2023-02-18T00:49:02;101082.34;;;6.82;100.00
56928;BME280;60850;52.502;13.426;2023-02-18T00:51:29;101078.84;;;6.74;100.00
56928;BME280;60850;52.502;13.426;2023-02-18T00:53:56;101082.44;;;6.67;100.00
56928;BME280;60850;52.502;13.426;2023-02-18T00:56:23;101093.88;;;6.69;100.00
56928;BME280;60850;52.502;13.426;2023-02-18T00:58:50;101094.81;;;6.63;100.00
56928;BME280;60850;52.502;13.426;2023-02-18T01:01:18;101088.66;;;6.59;100.00
56928;BME280;60850;52.502;13.426;2023-02-18T01:03:45;101096.59;;;6.59;100.00
56928;BME280;60850;52.502;13.426;2023-02-18T01:06:14;101095.75;;;6.50;100.00
56928;BME280;60850;52.502;13.426;2023-02-18T01:08:41;101086.91;;;6.48;100.00
56928;BME280;60850;52.502;13.426;2023-02-18T01:11:09;101102.81;;;6.51;100.00
56928;BME280;60850;52.502;13.426;2023-02-18T01:13:37;101073.69;;;6.48;100.00
56928;BME280;60850;52.502;13.426;2023-02-18T01:16:05;101078.13;;;6.40;100.00
56928;BME280;60850;52.502;13.426;2023-02-18T01:18:32;101080.78;;;6.44;100.00
56928;BME280;60850;52.502;13.426;2023-02-18T01:20:59;101077.22;;;6.48;100.00
56928;BME280;60850;52.502;13.426;2023-02-18T01:23:28;101079.88;;;6.41;100.00
56928;BME280;60850;52.502;13.426;2023-02-18T01:25:56;101086.97;;;6.42;100.00
56928;BME280;60850;52.502;13.426;2023-02-18T01:28:23;101091.34;;;6.41;100.00
56928;BME280;60850;52.502;13.426;2023-02-18T01:30:52;101087.84;;;6.41;100.00
56928;BME280;60850;52.502;13.426;2023-02-18T01:33:19;101068.41;;;6.45;100.00
56928;BME280;60850;52.502;13.426;2023-02-18T01:35:46;101082.56;;;6.42;100.00
56928;BME280;60850;52.502;13.426;2023-02-18T01:38:13;101090.50;;;6.39;100.00
56928;BME280;60850;52.502;13.426;2023-02-18T01:40:46;101088.72;;;6.44;100.00
56928;BME280;60850;52.502;13.426;2023-02-18T01:43:17;101075.47;;;6.44;100.00
56928;BME280;60850;52.502;13.426;2023-02-18T01:45:50;101076.34;;;6.45;100.00
56928;BME280;60850;52.502;13.426;2023-02-18T01:48:20;101091.34;;;6.50;100.00
56928;BME280;60850;52.502;13.426;2023-02-18T01:50:51;101087.81;;;6.50;100.00
56928;BME280;60850;52.502;13.426;2023-02-18T01:53:22;101096.63;;;6.56;100.00
56928;BME280;60850;52.502;13.426;2023-02-18T01:55:53;101090.44;;;6.56;100.00
56928;BME280;60850;52.502;13.426;2023-02-18T01:58:21;101100.13;;;6.58;100.00
56928;BME280;60850;52.502;13.426;2023-02-18T02:00:48;101078.09;;;6.56;100.00
56928;BME280;60850;52.502;13.426;2023-02-18T02:03:15;101080.69;;;6.59;100.00
56928;BME280;60850;52.502;13.426;2023-02-18T02:05:42;101082.47;;;6.54;100.00
56928;BME280;60850;52.502;13.426;2023-02-18T02:08:09;101073.66;;;6.54;100.00
56928;BME280;60850;52.502;13.426;2023-02-18T02:10:45;101071.91;;;6.56;100.00
56928;BME280;60850;52.502;13.426;2023-02-18T02:13:25;101087.78;;;6.54;100.00
56928;BME280;60850;52.502;13.426;2023-02-18T02:16:02;101083.41;;;6.50;100.00
56928;BME280;60850;52.502;13.426;2023-02-18T02:18:42;101103.66;;;6.54;100.00
56928;BME280;60850;52.502;13.426;2023-02-18T02:21:49;101094.88;;;6.49;100.00
56928;BME280;60850;52.502;13.426;2023-02-18T02:24:58;101096.63;;;6.53;100.00
56928;BME280;60850;52.502;13.426;2023-02-18T02:27:45;101103.69;;;6.51;100.00
56928;BME280;60850;52.502;13.426;2023-02-18T02:33:28;101100.19;;;6.40;100.00
56928;BME280;60850;52.502;13.426;2023-02-18T02:36:06;101094.91;;;6.39;100.00
56928;BME280;60850;52.502;13.426;2023-02-18T02:38:46;101101.13;;;6.36;100.00
56928;BME280;60850;52.502;13.426;2023-02-18T02:41:25;101100.22;;;6.36;100.00
56928;BME280;60850;52.502;13.426;2023-02-18T02:44:01;101087.88;;;6.30;100.00
56928;BME280;60850;52.502;13.426;2023-02-18T02:46:36;101100.25;;;6.29;100.00
56928;BME280;60850;52.502;13.426;2023-02-18T02:49:10;101102.91;;;6.25;100.00
56928;BME280;60850;52.502;13.426;2023-02-18T02:51:46;101090.56;;;6.22;100.00
56928;BME280;60850;52.502;13.426;2023-02-18T02:54:15;101101.16;;;6.24;100.00
56928;BME280;60850;52.502;13.426;2023-02-18T02:56:42;101102.03;;;6.21;100.00
56928;BME280;60850;52.502;13.426;2023-02-18T02:59:12;101091.44;;;6.20;100.00
56928;BME280;60850;52.502;13.426;2023-02-18T03:01:52;101096.75;;;6.23;100.00
56928;BME280;60850;52.502;13.426;2023-02-18T03:04:34;101102.03;;;6.20;100.00
56928;BME280;60850;52.502;13.426;2023-02-18T03:07:28;101105.56;;;6.19;100.00
56928;BME280;60850;52.502;13.426;2023-02-18T03:10:11;101100.28;;;6.11;100.00
56928;BME280;60850;52.502;13.426;2023-02-18T03:12:46;101106.50;;;6.07;100.00
56928;BME280;60850;52.502;13.426;2023-02-18T03:15:21;101104.69;;;6.06;100.00
56928;BME280;60850;52.502;13.426;2023-02-18T03:17:54;101095.91;;;6.09;100.00
56928;BME280;60850;52.502;13.426;2023-02-18T03:20:27;101095.03;;;6.00;100.00
56928;BME280;60850;52.502;13.426;2023-02-18T03:22:59;101091.50;;;5.95;100.00
56928;BME280;60850;52.502;13.426;2023-02-18T03:25:30;101107.41;;;5.92;100.00
56928;BME280;60850;52.502;13.426;2023-02-18T03:28:00;101100.34;;;5.94;100.00
56928;BME280;60850;52.502;13.426;2023-02-18T03:30:33;101101.22;;;5.96;100.00
56928;BME280;60850;52.502;13.426;2023-02-18T03:33:04;101098.56;;;5.96;100.00
56928;BME280;60850;52.502;13.426;2023-02-18T03:35:34;101096.81;;;6.00;100.00
56928;BME280;60850;52.502;13.426;2023-02-18T03:38:06;101084.44;;;6.07;100.00
56928;BME280;60850;52.502;13.426;2023-02-18T03:40:37;101095.88;;;6.15;100.00
56928;BME280;60850;52.502;13.426;2023-02-18T03:43:04;101088.78;;;6.26;100.00
56928;BME280;60850;52.502;13.426;2023-02-18T03:45:31;101088.75;;;6.35;100.00
56928;BME280;60850;52.502;13.426;2023-02-18T03:47:58;101086.97;;;6.43;100.00
56928;BME280;60850;52.502;13.426;2023-02-18T03:50:25;101094.03;;;6.43;100.00
56928;BME280;60850;52.502;13.426;2023-02-18T03:52:51;101091.34;;;6.41;100.00
56928;BME280;60850;52.502;13.426;2023-02-18T03:55:20;101088.75;;;6.37;100.00
56928;BME280;60850;52.502;13.426;2023-02-18T03:57:47;101080.81;;;6.35;100.00
56928;BME280;60850;52.502;13.426;2023-02-18T04:00:14;101087.84;;;6.38;100.00
56928;BME280;60850;52.502;13.426;2023-02-18T04:02:41;101095.81;;;6.27;100.00
56928;BME280;60850;52.502;13.426;2023-02-18T04:05:09;101101.16;;;6.18;100.00
56928;BME280;60850;52.502;13.426;2023-02-18T04:07:36;101091.47;;;6.15;100.00
56928;BME280;60850;52.502;13.426;2023-02-18T04:10:04;101098.53;;;6.15;100.00
56928;BME280;60850;52.502;13.426;2023-02-18T04:12:33;101105.59;;;6.08;100.00
56928;BME280;60850;52.502;13.426;2023-02-18T04:15:00;101101.19;;;6.04;100.00
56928;BME280;60850;52.502;13.426;2023-02-18T04:17:26;101102.97;;;6.08;100.00
56928;BME280;60850;52.502;13.426;2023-02-18T04:19:53;101099.41;;;6.06;100.00
56928;BME280;60850;52.502;13.426;2023-02-18T04:22:20;101121.50;;;6.00;100.00
56928;BME280;60850;52.502;13.426;2023-02-18T04:24:47;101105.59;;;6.05;100.00
56928;BME280;60850;52.502;13.426;2023-02-18T04:27:14;101114.44;;;6.02;100.00
56928;BME280;60850;52.502;13.426;2023-02-18T04:29:43;101121.50;;;6.02;100.00
56928;BME280;60850;52.502;13.426;2023-02-18T04:32:09;101113.56;;;6.07;100.00
56928;BME280;60850;52.502;13.426;2023-02-18T04:34:36;101123.25;;;5.98;100.00
56928;BME280;60850;52.502;13.426;2023-02-18T04:37:03;101128.56;;;5.97;100.00
56928;BME280;60850;52.502;13.426;2023-02-18T04:39:30;101128.56;;;5.95;100.00
56928;BME280;60850;52.502;13.426;2023-02-18T04:41:57;101122.38;;;5.95;100.00
56928;BME280;60850;52.502;13.426;2023-02-18T04:44:24;101121.47;;;5.90;100.00
56928;BME280;60850;52.502;13.426;2023-02-18T04:46:52;101129.41;;;5.88;100.00
56928;BME280;60850;52.502;13.426;2023-02-18T04:49:19;101136.47;;;5.86;100.00
56928;BME280;60850;52.502;13.426;2023-02-18T04:51:51;101123.25;;;5.80;100.00
56928;BME280;60850;52.502;13.426;2023-02-18T04:54:19;101119.75;;;5.78;100.00
56928;BME280;60850;52.502;13.426;2023-02-18T04:56:45;101132.97;;;5.79;100.00
56928;BME280;60850;52.502;13.426;2023-02-18T04:59:15;101128.53;;;5.80;100.00
56928;BME280;60850;52.502;13.426;2023-02-18T05:01:42;101127.69;;;5.78;100.00
56928;BME280;60850;52.502;13.426;2023-02-18T05:04:10;101139.13;;;5.89;100.00
56928;BME280;60850;52.502;13.426;2023-02-18T05:06:37;101131.16;;;5.85;100.00
56928;BME280;60850;52.502;13.426;2023-02-18T05:09:05;101139.13;;;5.83;100.00
56928;BME280;60850;52.502;13.426;2023-02-18T05:11:32;101132.94;;;5.87;100.00
56928;BME280;60850;52.502;13.426;2023-02-18T05:13:59;101128.53;;;5.88;100.00
56928;BME280;60850;52.502;13.426;2023-02-18T05:16:26;101133.81;;;5.89;100.00
56928;BME280;60850;52.502;13.426;2023-02-18T05:18:53;101124.16;;;5.94;100.00
56928;BME280;60850;52.502;13.426;2023-02-18T05:21:21;101127.66;;;6.05;100.00
56928;BME280;60850;52.502;13.426;2023-02-18T05:23:48;101124.09;;;6.19;100.00
56928;BME280;60850;52.502;13.426;2023-02-18T05:26:15;101120.53;;;6.26;100.00
56928;BME280;60850;52.502;13.426;2023-02-18T05:28:42;101116.97;;;6.44;100.00
56928;BME280;60850;52.502;13.426;2023-02-18T05:31:08;101113.41;;;6.52;100.00
56928;BME280;60850;52.502;13.426;2023-02-18T05:33:35;101112.50;;;6.55;100.00
56928;BME280;60850;52.502;13.426;2023-02-18T05:36:03;101110.72;;;6.65;100.00
56928;BME280;60850;52.502;13.426;2023-02-18T05:38:31;101106.22;;;6.74;100.00
56928;BME280;60850;52.502;13.426;2023-02-18T05:40:58;101105.34;;;6.75;100.00
56928;BME280;60850;52.502;13.426;2023-02-18T05:43:25;101107.13;;;6.78;100.00
56928;BME280;60850;52.502;13.426;2023-02-18T05:45:52;101100.00;;;6.86;100.00
56928;BME280;60850;52.502;13.426;2023-02-18T05:48:19;101097.31;;;6.92;100.00
56928;BME280;60850;52.502;13.426;2023-02-18T05:50:46;101107.00;;;6.95;100.00
56928;BME280;60850;52.502;13.426;2023-02-18T05:53:13;101099.06;;;6.98;100.00
56928;BME280;60850;52.502;13.426;2023-02-18T05:55:41;101106.97;;;7.02;100.00
56928;BME280;60850;52.502;13.426;2023-02-18T05:58:08;101098.09;;;7.09;100.00
56928;BME280;60850;52.502;13.426;2023-02-18T06:00:35;101107.78;;;7.13;100.00
56928;BME280;60850;52.502;13.426;2023-02-18T06:03:02;101106.00;;;7.15;100.00
56928;BME280;60850;52.502;13.426;2023-02-18T06:05:29;101110.41;;;7.20;100.00
56928;BME280;60850;52.502;13.426;2023-02-18T06:07:56;101108.63;;;7.20;100.00
56928;BME280;60850;52.502;13.426;2023-02-18T06:10:23;101109.50;;;7.18;100.00
56928;BME280;60850;52.502;13.426;2023-02-18T06:12:51;101111.25;;;7.23;100.00
56928;BME280;60850;52.502;13.426;2023-02-18T06:15:21;101110.34;;;7.26;100.00
56928;BME280;60850;52.502;13.426;2023-02-18T06:17:48;101109.44;;;7.30;100.00
56928;BME280;60850;52.502;13.426;2023-02-18T06:20:14;101102.34;;;7.35;100.00
56928;BME280;60850;52.502;13.426;2023-02-18T06:22:41;101108.47;;;7.38;100.00
56928;BME280;60850;52.502;13.426;2023-02-18T06:25:08;101110.22;;;7.47;100.00
56928;BME280;60850;52.502;13.426;2023-02-18T06:27:35;101105.00;;;7.35;100.00
56928;BME280;60850;52.502;13.426;2023-02-18T06:30:05;101104.94;;;7.39;100.00
56928;BME280;60850;52.502;13.426;2023-02-18T06:32:32;101121.75;;;7.41;100.00
56928;BME280;60850;52.502;13.426;2023-02-18T06:34:59;101106.69;;;7.42;100.00
56928;BME280;60850;52.502;13.426;2023-02-18T06:37:26;101109.31;;;7.45;100.00
56928;BME280;60850;52.502;13.426;2023-02-18T06:39:53;101104.88;;;7.50;100.00
56928;BME280;60850;52.502;13.426;2023-02-18T06:42:20;101105.66;;;7.60;100.00
56928;BME280;60850;52.502;13.426;2023-02-18T06:44:47;101102.09;;;7.61;100.00
56928;BME280;60850;52.502;13.426;2023-02-18T06:47:15;101102.06;;;7.65;100.00
56928;BME280;60850;52.502;13.426;2023-02-18T06:49:42;101095.91;;;7.63;100.00
56928;BME280;60850;52.502;13.426;2023-02-18T06:52:09;101089.69;;;7.64;100.00
56928;BME280;60850;52.502;13.426;2023-02-18T06:54:35;101092.31;;;7.70;100.00
56928;BME280;60850;52.502;13.426;2023-02-18T06:57:03;101090.50;;;7.76;100.00
56928;BME280;60850;52.502;13.426;2023-02-18T06:59:29;101091.31;;;7.81;100.00
56928;BME280;60850;52.502;13.426;2023-02-18T07:01:56;101088.72;;;7.75;100.00
56928;BME280;60850;52.502;13.426;2023-02-18T07:04:25;101090.47;;;7.77;100.00
56928;BME280;60850;52.502;13.426;2023-02-18T07:06:52;101093.09;;;7.80;100.00
56928;BME280;60850;52.502;13.426;2023-02-18T07:09:18;101091.34;;;7.79;100.00
56928;BME280;60850;52.502;13.426;2023-02-18T07:11:47;101080.72;;;7.82;100.00
56928;BME280;60850;52.502;13.426;2023-02-18T07:14:14;101083.34;;;7.84;100.00
56928;BME280;60850;52.502;13.426;2023-02-18T07:16:41;101071.81;;;7.86;100.00
56928;BME280;60850;52.502;13.426;2023-02-18T07:19:07;101073.50;;;7.93;100.00
56928;BME280;60850;52.502;13.426;2023-02-18T07:21:36;101078.84;;;7.90;100.00
56928;BME280;60850;52.502;13.426;2023-02-18T07:24:03;101081.47;;;7.92;100.00
56928;BME280;60850;52.502;13.426;2023-02-18T07:26:30;101069.91;;;7.99;100.00
56928;BME280;60850;52.502;13.426;2023-02-18T07:28:57;101063.69;;;8.00;100.00
56928;BME280;60850;52.502;13.426;2023-02-18T07:31:24;101063.66;;;8.05;100.00
56928;BME280;60850;52.502;13.426;2023-02-18T07:33:51;101062.75;;;8.06;100.00
56928;BME280;60850;52.502;13.426;2023-02-18T07:36:18;101075.09;;;8.11;100.00
56928;BME280;60850;52.502;13.426;2023-02-18T07:38:46;101067.00;;;8.20;100.00
56928;BME280;60850;52.502;13.426;2023-02-18T07:41:15;101067.84;;;8.22;100.00
56928;BME280;60850;52.502;13.426;2023-02-18T07:43:42;101066.88;;;8.30;100.00
56928;BME280;60850;52.502;13.426;2023-02-18T07:46:10;101061.56;;;8.33;100.00
56928;BME280;60850;52.502;13.426;2023-02-18T07:48:36;101046.44;;;8.38;100.00
56928;BME280;60850;52.502;13.426;2023-02-18T07:51:05;101043.78;;;8.38;100.00
56928;BME280;60850;52.502;13.426;2023-02-18T07:53:32;101049.91;;;8.46;100.00
56928;BME280;60850;52.502;13.426;2023-02-18T07:56:01;101050.69;;;8.54;100.00
56928;BME280;60850;52.502;13.426;2023-02-18T07:58:32;101053.22;;;8.63;100.00
56928;BME280;60850;52.502;13.426;2023-02-18T08:01:03;101051.44;;;8.64;100.00
56928;BME280;60850;52.502;13.426;2023-02-18T08:03:31;101056.81;;;8.61;100.00
56928;BME280;60850;52.502;13.426;2023-02-18T08:06:00;101053.28;;;8.59;100.00
56928;BME280;60850;52.502;13.426;2023-02-18T08:08:28;101046.16;;;8.62;100.00
56928;BME280;60850;52.502;13.426;2023-02-18T08:10:58;101037.91;;;8.80;100.00
56928;BME280;60850;52.502;13.426;2023-02-18T08:13:28;101033.38;;;8.87;100.00
56928;BME280;60850;52.502;13.426;2023-02-18T08:15:56;101026.34;;;8.85;100.00
56928;BME280;60850;52.502;13.426;2023-02-18T08:18:24;101029.91;;;8.80;100.00
56928;BME280;60850;52.502;13.426;2023-02-18T08:20:51;101025.47;;;8.84;100.00
56928;BME280;60850;52.502;13.426;2023-02-18T08:23:19;101024.63;;;8.79;100.00
56928;BME280;60850;52.502;13.426;2023-02-18T08:25:48;101016.66;;;8.79;100.00
56928;BME280;60850;52.502;13.426;2023-02-18T08:28:15;101015.72;;;8.83;100.00
56928;BME280;60850;52.502;13.426;2023-02-18T08:30:45;101012.16;;;8.84;100.00
56928;BME280;60850;52.502;13.426;2023-02-18T08:33:12;101013.88;;;8.87;100.00
56928;BME280;60850;52.502;13.426;2023-02-18T08:35:39;101005.13;;;8.82;100.00
56928;BME280;60850;52.502;13.426;2023-02-18T08:38:07;101001.59;;;8.79;100.00
56928;BME280;60850;52.502;13.426;2023-02-18T08:40:34;100998.91;;;8.83;100.00
56928;BME280;60850;52.502;13.426;2023-02-18T08:43:01;100997.81;;;8.94;100.00
56928;BME280;60850;52.502;13.426;2023-02-18T08:45:28;100995.06;;;9.00;100.00
56928;BME280;60850;52.502;13.426;2023-02-18T08:47:56;100998.59;;;9.01;100.00
56928;BME280;60850;52.502;13.426;2023-02-18T08:50:24;100991.53;;;9.00;100.00
56928;BME280;60850;52.502;13.426;2023-02-18T08:52:51;100996.03;;;8.95;100.00
56928;BME280;60850;52.502;13.426;2023-02-18T08:55:18;101000.50;;;8.93;100.00
56928;BME280;60850;52.502;13.426;2023-02-18T08:57:46;101004.16;;;8.86;100.00
56928;BME280;60850;52.502;13.426;2023-02-18T09:00:14;100989.13;;;8.83;100.00
56928;BME280;60850;52.502;13.426;2023-02-18T09:02:41;100988.22;;;8.84;100.00
56928;BME280;60850;52.502;13.426;2023-02-18T09:05:11;100990.94;;;8.83;100.00
56928;BME280;60850;52.502;13.426;2023-02-18T09:07:38;100986.41;;;8.86;100.00
56928;BME280;60850;52.502;13.426;2023-02-18T09:10:06;100981.16;;;8.83;100.00
56928;BME280;60850;52.502;13.426;2023-02-18T09:12:33;100971.44;;;8.80;100.00
56928;BME280;60850;52.502;13.426;2023-02-18T09:15:01;100966.94;;;8.86;100.00
56928;BME280;60850;52.502;13.426;2023-02-18T09:17:29;100960.69;;;8.90;100.00
56928;BME280;60850;52.502;13.426;2023-02-18T09:19:56;100957.06;;;8.95;100.00
56928;BME280;60850;52.502;13.426;2023-02-18T09:22:24;100943.56;;;9.06;100.00
56928;BME280;60850;52.502;13.426;2023-02-18T09:24:51;100945.19;;;9.15;100.00
56928;BME280;60850;52.502;13.426;2023-02-18T09:27:18;100947.75;;;9.19;100.00
56928;BME280;60850;52.502;13.426;2023-02-18T09:29:45;100944.34;;;9.13;100.00
56928;BME280;60850;52.502;13.426;2023-02-18T09:32:12;100933.63;;;9.17;100.00
56928;BME280;60850;52.502;13.426;2023-02-18T09:34:39;100945.09;;;9.19;100.00
56928;BME280;60850;52.502;13.426;2023-02-18T09:37:06;100933.56;;;9.20;100.00
56928;BME280;60850;52.502;13.426;2023-02-18T09:39:35;100930.06;;;9.18;100.00
56928;BME280;60850;52.502;13.426;2023-02-18T09:42:03;100932.72;;;9.18;100.00
56928;BME280;60850;52.502;13.426;2023-02-18T09:44:35;100906.16;;;9.15;100.00
56928;BME280;60850;52.502;13.426;2023-02-18T09:47:05;100890.16;;;9.18;100.00
56928;BME280;60850;52.502;13.426;2023-02-18T09:49:36;100900.84;;;9.15;100.00
56928;BME280;60850;52.502;13.426;2023-02-18T09:52:06;100895.63;;;9.09;100.00
56928;BME280;60850;52.502;13.426;2023-02-18T09:54:38;100880.59;;;9.06;100.00
56928;BME280;60850;52.502;13.426;2023-02-18T09:57:05;100871.66;;;9.12;100.00
56928;BME280;60850;52.502;13.426;2023-02-18T09:59:41;100852.81;;;9.24;100.00
56928;BME280;60850;52.502;13.426;2023-02-18T10:02:12;100862.50;;;9.27;100.00
56928;BME280;60850;52.502;13.426;2023-02-18T10:04:42;100857.28;;;9.21;100.00
56928;BME280;60850;52.502;13.426;2023-02-18T10:07:18;100850.44;;;9.07;100.00
56928;BME280;60850;52.502;13.426;2023-02-18T10:09:50;100853.19;;;9.04;100.00
56928;BME280;60850;52.502;13.426;2023-02-18T10:12:19;100853.25;;;9.00;100.00
56928;BME280;60850;52.502;13.426;2023-02-18T10:14:49;100850.69;;;8.95;100.00
56928;BME280;60850;52.502;13.426;2023-02-18T10:17:17;100851.69;;;8.90;100.00
56928;BME280;60850;52.502;13.426;2023-02-18T10:19:46;100851.81;;;8.80;100.00
56928;BME280;60850;52.502;13.426;2023-02-18T10:22:15;100837.66;;;8.82;100.00
56928;BME280;60850;52.502;13.426;2023-02-18T10:24:45;100831.47;;;8.79;100.00
56928;BME280;60850;52.502;13.426;2023-02-18T10:27:20;100824.44;;;8.77;100.00
56928;BME280;60850;52.502;13.426;2023-02-18T10:29:49;100798.69;;;8.79;100.00
56928;BME280;60850;52.502;13.426;2023-02-18T10:32:20;100792.53;;;8.77;100.00
56928;BME280;60850;52.502;13.426;2023-02-18T10:34:52;100780.06;;;8.79;100.00
56928;BME280;60850;52.502;13.426;2023-02-18T10:37:32;100778.00;;;8.96;100.00
56928;BME280;60850;52.502;13.426;2023-02-18T10:40:09;100766.44;;;8.97;100.00
56928;BME280;60850;52.502;13.426;2023-02-18T10:42:48;100754.94;;;8.97;100.00
56928;BME280;60850;52.502;13.426;2023-02-18T10:45:25;100738.97;;;8.97;100.00
56928;BME280;60850;52.502;13.426;2023-02-18T10:48:05;100726.41;;;9.05;100.00
56928;BME280;60850;52.502;13.426;2023-02-18T10:50:38;100722.66;;;9.14;100.00
56928;BME280;60850;52.502;13.426;2023-02-18T10:53:11;100714.06;;;9.01;100.00
56928;BME280;60850;52.502;13.426;2023-02-18T10:55:41;100711.59;;;8.92;100.00
56928;BME280;60850;52.502;13.426;2023-02-18T10:58:29;100715.28;;;8.85;100.00
56928;BME280;60850;52.502;13.426;2023-02-18T11:00:57;100704.72;;;8.82;100.00
56928;BME280;60850;52.502;13.426;2023-02-18T11:03:25;100697.50;;;8.87;100.00
56928;BME280;60850;52.502;13.426;2023-02-18T11:05:55;100672.56;;;8.94;100.00
56928;BME280;60850;52.502;13.426;2023-02-18T11:08:24;100665.28;;;9.02;100.00
56928;BME280;60850;52.502;13.426;2023-02-18T11:10:53;100654.53;;;9.08;100.00
56928;BME280;60850;52.502;13.426;2023-02-18T11:13:27;100650.66;;;9.23;100.00
56928;BME280;60850;52.502;13.426;2023-02-18T11:15:59;100641.75;;;9.25;100.00
56928;BME280;60850;52.502;13.426;2023-02-18T11:18:31;100625.88;;;9.21;100.00
56928;BME280;60850;52.502;13.426;2023-02-18T11:21:04;100615.97;;;9.27;100.00
56928;BME280;60850;52.502;13.426;2023-02-18T11:23:46;100615.00;;;9.30;100.00
56928;BME280;60850;52.502;13.426;2023-02-18T11:26:17;100619.50;;;9.28;100.00
56928;BME280;60850;52.502;13.426;2023-02-18T11:28:50;100607.13;;;9.27;100.00
56928;BME280;60850;52.502;13.426;2023-02-18T11:31:23;100599.13;;;9.27;100.00
56928;BME280;60850;52.502;13.426;2023-02-18T11:33:52;100594.97;;;9.17;100.00
56928;BME280;60850;52.502;13.426;2023-02-18T11:36:23;100588.16;;;9.03;100.00
56928;BME280;60850;52.502;13.426;2023-02-18T11:38:52;100582.03;;;9.00;100.00
56928;BME280;60850;52.502;13.426;2023-02-18T11:41:29;100578.53;;;8.98;100.00
56928;BME280;60850;52.502;13.426;2023-02-18T11:44:00;100562.63;;;8.95;100.00
56928;BME280;60850;52.502;13.426;2023-02-18T11:46:28;100564.47;;;8.93;100.00
56928;BME280;60850;52.502;13.426;2023-02-18T11:48:55;100551.06;;;8.97;100.00
56928;BME280;60850;52.502;13.426;2023-02-18T11:51:39;100537.69;;;9.00;100.00
56928;BME280;60850;52.502;13.426;2023-02-18T11:54:22;100541.22;;;9.01;100.00
56928;BME280;60850;52.502;13.426;2023-02-18T11:56:55;100532.34;;;9.02;100.00
56928;BME280;60850;52.502;13.426;2023-02-18T11:59:24;100518.16;;;9.03;100.00
56928;BME280;60850;52.502;13.426;2023-02-18T12:01:54;100507.53;;;9.01;100.00
56928;BME280;60850;52.502;13.426;2023-02-18T12:04:26;100509.44;;;8.96;100.00
56928;BME280;60850;52.502;13.426;2023-02-18T12:07:07;100504.66;;;9.11;100.00
56928;BME280;60850;52.502;13.426;2023-02-18T12:09:42;100491.03;;;9.24;100.00
56928;BME280;60850;52.502;13.426;2023-02-18T12:12:12;100482.78;;;9.35;100.00
56928;BME280;60850;52.502;13.426;2023-02-18T12:14:43;100478.41;;;9.32;100.00
56928;BME280;60850;52.502;13.426;2023-02-18T12:17:29;100466.81;;;9.35;100.00
56928;BME280;60850;52.502;13.426;2023-02-18T12:20:12;100472.06;;;9.36;100.00
56928;BME280;60850;52.502;13.426;2023-02-18T12:22:47;100466.81;;;9.35;100.00
56928;BME280;60850;52.502;13.426;2023-02-18T12:25:24;100470.28;;;9.39;100.00
56928;BME280;60850;52.502;13.426;2023-02-18T12:31:12;100459.78;;;9.67;100.00
56928;BME280;60850;52.502;13.426;2023-02-18T12:33:50;100452.72;;;9.64;100.00
56928;BME280;60850;52.502;13.426;2023-02-18T12:36:28;100446.69;;;9.59;100.00
56928;BME280;60850;52.502;13.426;2023-02-18T12:39:10;100443.75;;;9.68;100.00
56928;BME280;60850;52.502;13.426;2023-02-18T12:41:53;100440.06;;;9.72;100.00
56928;BME280;60850;52.502;13.426;2023-02-18T12:44:31;100428.34;;;9.79;100.00
56928;BME280;60850;52.502;13.426;2023-02-18T12:47:26;100423.59;;;9.90;100.00
56928;BME280;60850;52.502;13.426;2023-02-18T12:50:10;100421.41;;;10.05;100.00
56928;BME280;60850;52.502;13.426;2023-02-18T12:52:50;100402.53;;;10.12;100.00
56928;BME280;60850;52.502;13.426;2023-02-18T12:55:30;100409.47;;;10.18;100.00
56928;BME280;60850;52.502;13.426;2023-02-18T12:58:05;100400.28;;;10.30;100.00
56928;BME280;60850;52.502;13.426;2023-02-18T13:00:59;100400.72;;;10.42;100.00
56928;BME280;60850;52.502;13.426;2023-02-18T13:04:00;100389.69;;;10.55;100.00